Time;durP1;ratioP1;P1;durP2;ratioP2;P2;SDS_P1;SDS_P2;PMS_P1;PMS_P2;Temp;Humidity;BMP_temperature;BMP_pressure;BME280_temperature;BME280_humidity;BME280_pressure;Samples;Min_cycle;Max_cycle;Signal;HPM_P1;HPM_P2
2023/04/24 00:00:44;;;;;;;12.93;7.07;;;;;;;13.49;50.95;99321.16;4222518;28;20233;-67
2023/04/24 00:03:13;;;;;;;18.37;7.97;;;;;;;13.30;51.78;99318.03;4226078;28;21630;-67
2023/04/24 00:05:41;;;;;;;17.00;7.60;;;;;;;13.13;52.60;99320.16;4215952;28;20357;-69
2023/04/24 00:08:07;;;;;;;18.10;7.93;;;;;;;13.06;53.09;99323.81;4241083;28;20242;-68
2023/04/24 00:10:35;;;;;;;16.10;7.40;;;;;;;13.17;52.15;99323.34;4222746;28;20234;-67
2023/04/24 00:13:01;;;;;;;14.93;7.63;;;;;;;13.29;52.04;99315.53;4207322;28;20239;-68
2023/04/24 00:15:28;;;;;;;11.83;7.23;;;;;;;13.19;52.38;99309.53;4212837;28;20380;-70
2023/04/24 00:17:56;;;;;;;12.07;6.97;;;;;;;13.12;52.47;99310.31;4223356;28;20554;-68
2023/04/24 00:20:22;;;;;;;16.47;7.10;;;;;;;13.06;52.78;99313.81;4219788;28;26147;-67
2023/04/24 00:22:49;;;;;;;12.63;6.57;;;;;;;12.97;52.97;99310.34;4200158;28;20365;-67
2023/04/24 00:25:15;;;;;;;15.93;7.67;;;;;;;13.03;52.92;99316.91;4226142;28;20293;-68
2023/04/24 00:27:42;;;;;;;15.33;7.67;;;;;;;13.03;52.85;99306.03;4230938;28;20235;-68
2023/04/24 00:30:10;;;;;;;14.13;6.90;;;;;;;13.27;52.68;99312.16;4215218;28;20426;-67
2023/04/24 00:32:36;;;;;;;14.10;6.80;;;;;;;13.00;53.25;99303.69;4207160;28;20238;-68
2023/04/24 00:35:04;;;;;;;19.67;6.80;;;;;;;12.94;53.76;99299.88;4231168;28;20266;-66
2023/04/24 00:37:30;;;;;;;16.80;7.40;;;;;;;13.12;53.34;99304.88;4226607;28;20231;-67
2023/04/24 00:39:57;;;;;;;14.47;7.83;;;;;;;12.76;55.38;99311.16;4222156;28;20918;-66
2023/04/24 00:42:24;;;;;;;15.20;7.93;;;;;;;12.75;54.76;99306.75;4227829;28;20408;-67
2023/04/24 00:44:51;;;;;;;14.50;7.33;;;;;;;12.56;55.29;99301.88;4218299;28;21803;-67
2023/04/24 00:47:18;;;;;;;21.77;8.37;;;;;;;12.66;54.61;99299.72;4227262;28;20334;-66
2023/04/24 00:49:45;;;;;;;17.50;8.53;;;;;;;12.65;54.72;99309.72;4228284;28;20283;-68
2023/04/24 00:52:12;;;;;;;15.27;7.57;;;;;;;12.51;55.34;99302.44;4222100;28;20343;-69
2023/04/24 00:54:38;;;;;;;17.17;8.30;;;;;;;12.77;53.68;99303.84;4221968;28;20682;-67
2023/04/24 00:57:05;;;;;;;16.97;8.07;;;;;;;13.03;52.71;99316.06;4224042;28;23055;-67
2023/04/24 00:59:32;;;;;;;18.43;7.77;;;;;;;13.08;52.46;99308.19;4222936;28;20312;-68
2023/04/24 01:01:59;;;;;;;16.97;8.00;;;;;;;13.07;52.34;99307.31;4212321;28;20246;-69
2023/04/24 01:04:26;;;;;;;20.03;7.67;;;;;;;13.06;52.83;99307.53;4223083;28;21273;-70
2023/04/24 01:06:52;;;;;;;17.63;8.13;;;;;;;12.88;53.08;99305.22;4229181;28;20239;-70
2023/04/24 01:09:21;;;;;;;15.70;8.13;;;;;;;12.80;53.46;99298.03;4226186;28;21636;-70
2023/04/24 01:11:48;;;;;;;16.63;7.37;;;;;;;12.67;54.35;99304.13;4222128;28;20259;-68
2023/04/24 01:14:15;;;;;;;13.27;7.10;;;;;;;12.74;53.53;99298.78;4229646;28;21801;-72
2023/04/24 01:16:41;;;;;;;15.87;8.07;;;;;;;12.66;53.98;99297.03;4233861;28;21116;-68
2023/04/24 01:19:11;;;;;;;14.20;7.37;;;;;;;12.55;54.06;99295.63;4223045;28;20243;-67
2023/04/24 01:21:38;;;;;;;13.77;7.53;;;;;;;12.60;53.65;99286.91;4232942;28;20266;-68
2023/04/24 01:24:05;;;;;;;14.30;7.77;;;;;;;12.57;54.36;99293.56;4230997;28;22931;-69
2023/04/24 01:26:32;;;;;;;18.40;8.50;;;;;;;12.44;54.61;99282.50;4226894;28;22881;-67
2023/04/24 01:28:59;;;;;;;13.93;7.90;;;;;;;12.52;53.96;99283.28;4221225;28;20309;-70
2023/04/24 01:31:26;;;;;;;15.73;7.83;;;;;;;12.41;54.56;99282.91;4235552;28;22540;-69
2023/04/24 01:33:53;;;;;;;15.00;7.77;;;;;;;12.45;54.53;99278.78;4228671;28;21665;-68
2023/04/24 01:36:20;;;;;;;12.90;7.27;;;;;;;12.56;54.30;99277.44;4211412;28;20274;-67
2023/04/24 01:38:47;;;;;;;13.57;7.33;;;;;;;12.72;53.87;99284.56;4218650;28;20475;-68
2023/04/24 01:41:13;;;;;;;12.83;6.53;;;;;;;12.98;52.71;99284.03;4267493;28;20598;-68
2023/04/24 01:43:40;;;;;;;15.90;7.83;;;;;;;13.17;51.81;99277.13;4230715;28;20245;-70
2023/04/24 01:46:07;;;;;;;14.13;7.57;;;;;;;13.11;51.91;99278.75;4236189;28;21900;-67
2023/04/24 01:48:33;;;;;;;15.57;7.17;;;;;;;13.00;52.00;99265.66;4231595;28;20227;-68
2023/04/24 01:51:00;;;;;;;15.93;7.90;;;;;;;12.98;52.52;99265.03;4214691;28;20330;-71
2023/04/24 01:53:26;;;;;;;15.87;7.87;;;;;;;12.76;53.15;99261.41;4218041;28;20235;-69
2023/04/24 01:55:53;;;;;;;15.60;7.77;;;;;;;12.68;53.68;99263.22;4215355;28;23427;-70
2023/04/24 01:58:19;;;;;;;16.63;7.93;;;;;;;12.63;53.83;99262.09;4234253;28;21305;-67
2023/04/24 02:00:46;;;;;;;13.97;7.67;;;;;;;12.59;53.59;99260.81;4224141;28;20231;-68
2023/04/24 02:03:13;;;;;;;18.93;7.20;;;;;;;12.61;53.27;99264.19;4233305;28;20232;-69
2023/04/24 02:05:39;;;;;;;18.83;7.60;;;;;;;12.67;53.86;99268.84;4229409;28;20313;-69
2023/04/24 02:08:06;;;;;;;16.50;7.40;;;;;;;12.60;53.85;99273.34;4225511;28;20331;-68
2023/04/24 02:10:32;;;;;;;16.10;7.50;;;;;;;12.54;54.14;99280.38;4228206;28;23022;-70
2023/04/24 02:12:59;;;;;;;17.17;8.37;;;;;;;12.80;53.03;99271.72;4210000;28;20319;-68
2023/04/24 02:15:26;;;;;;;12.17;7.67;;;;;;;13.09;51.97;99266.38;4226980;28;20395;-69
2023/04/24 02:17:52;;;;;;;16.00;8.13;;;;;;;12.89;52.43;99268.88;4210486;28;21455;-67
2023/04/24 02:20:19;;;;;;;14.70;8.33;;;;;;;12.90;52.33;99267.84;4203486;28;20290;-69
2023/04/24 02:22:45;;;;;;;15.80;7.03;;;;;;;12.95;52.14;99260.78;4235579;28;21278;-70
2023/04/24 02:25:12;;;;;;;15.00;8.47;;;;;;;12.82;53.01;99257.94;4231250;28;20720;-68
2023/04/24 02:27:38;;;;;;;16.47;8.60;;;;;;;12.66;53.68;99254.41;4230452;28;20246;-69
2023/04/24 02:30:06;;;;;;;21.43;8.23;;;;;;;12.79;52.80;99245.59;4226354;28;21669;-69
2023/04/24 02:32:33;;;;;;;13.60;8.10;;;;;;;12.87;52.80;99250.06;4205023;28;20240;-69
2023/04/24 02:35:00;;;;;;;19.53;8.97;;;;;;;12.96;52.59;99251.63;4230035;28;20234;-69
2023/04/24 02:37:26;;;;;;;15.30;8.30;;;;;;;12.87;52.70;99246.50;4212331;28;20413;-68
2023/04/24 02:39:53;;;;;;;18.40;8.20;;;;;;;12.73;52.94;99235.50;4219248;28;20674;-68
2023/04/24 02:42:19;;;;;;;16.00;8.67;;;;;;;12.51;54.04;99243.59;4216974;28;20270;-68
2023/04/24 02:44:46;;;;;;;13.83;8.20;;;;;;;12.35;54.58;99239.19;4225700;28;20421;-67
2023/04/24 02:47:12;;;;;;;12.83;7.73;;;;;;;12.28;54.64;99237.44;4234459;28;20766;-71
2023/04/24 02:49:39;;;;;;;21.03;9.20;;;;;;;12.22;55.19;99236.31;4210128;28;20413;-67
2023/04/24 02:52:06;;;;;;;16.43;8.13;;;;;;;12.11;55.74;99232.19;4232454;28;20610;-68
2023/04/24 02:54:32;;;;;;;18.10;8.37;;;;;;;11.99;56.04;99239.94;4228376;28;20246;-70
2023/04/24 02:57:00;;;;;;;17.30;8.87;;;;;;;11.87;56.56;99236.00;4226000;28;20274;-69
2023/04/24 02:59:28;;;;;;;17.37;9.23;;;;;;;11.76;57.14;99234.59;4220528;28;21327;-68
2023/04/24 03:01:55;;;;;;;18.83;8.90;;;;;;;11.58;57.82;99234.94;4231402;28;25477;-70
2023/04/24 03:04:22;;;;;;;14.30;8.57;;;;;;;11.47;57.96;99233.50;4228747;28;20227;-68
2023/04/24 03:06:48;;;;;;;15.67;8.87;;;;;;;11.53;57.39;99230.06;4220627;28;20353;-68
2023/04/24 03:09:15;;;;;;;19.10;9.23;;;;;;;11.50;57.54;99229.56;4230401;28;21266;-68
2023/04/24 03:11:41;;;;;;;15.40;9.07;;;;;;;11.49;57.24;99234.13;4226259;28;20614;-67
2023/04/24 03:14:08;;;;;;;17.20;8.77;;;;;;;11.53;57.25;99231.91;4217241;28;20408;-68
2023/04/24 03:16:35;;;;;;;15.47;8.30;;;;;;;11.57;57.15;99228.66;4227909;28;20357;-69
2023/04/24 03:19:02;;;;;;;15.63;8.33;;;;;;;11.64;56.52;99226.06;4229104;28;20242;-69
2023/04/24 03:21:28;;;;;;;18.73;8.80;;;;;;;11.57;56.95;99227.81;4233616;28;20297;-67
2023/04/24 03:23:55;;;;;;;19.53;8.47;;;;;;;11.54;57.34;99229.03;4228667;28;20235;-68
2023/04/24 03:26:21;;;;;;;18.63;8.70;;;;;;;11.43;58.14;99220.50;4229036;28;22760;-69
2023/04/24 03:28:48;;;;;;;18.90;9.27;;;;;;;11.50;57.74;99219.56;4224895;28;20338;-70
2023/04/24 03:31:15;;;;;;;21.93;10.97;;;;;;;11.58;56.83;99227.63;4223264;28;21742;-67
2023/04/24 03:33:42;;;;;;;21.87;9.33;;;;;;;11.63;56.79;99235.22;4216951;28;20326;-69
2023/04/24 03:36:08;;;;;;;19.40;8.47;;;;;;;11.71;56.92;99231.56;4232392;28;20227;-68
2023/04/24 03:38:35;;;;;;;32.80;12.80;;;;;;;11.83;55.35;99235.53;4212545;28;20240;-67
2023/04/24 03:41:02;;;;;;;27.93;14.63;;;;;;;11.96;54.90;99224.03;4233140;28;21576;-68
2023/04/24 03:43:29;;;;;;;47.80;20.37;;;;;;;11.95;55.07;99233.19;4232640;28;20794;-69
2023/04/24 03:45:55;;;;;;;45.27;20.20;;;;;;;11.99;55.20;99239.94;4218365;28;20259;-68
2023/04/24 03:48:22;;;;;;;43.90;21.93;;;;;;;12.04;54.43;99226.69;4236935;28;20257;-69
2023/04/24 03:50:49;;;;;;;45.93;19.43;;;;;;;12.16;53.74;99228.91;4242352;28;22524;-67
2023/04/24 03:53:16;;;;;;;39.30;18.63;;;;;;;12.35;53.48;99238.34;4235693;28;26197;-72
2023/04/24 03:55:42;;;;;;;34.80;16.20;;;;;;;12.30;53.34;99236.22;4235557;28;22977;-69
2023/04/24 03:58:11;;;;;;;30.83;13.50;;;;;;;12.31;53.43;99232.47;4253301;28;21112;-68
2023/04/24 04:00:40;;;;;;;25.83;11.70;;;;;;;12.46;53.07;99234.31;4234671;28;21907;-69
2023/04/24 04:03:06;;;;;;;18.67;9.03;;;;;;;12.44;53.08;99237.22;4216855;28;20753;-70
2023/04/24 04:05:33;;;;;;;18.07;8.17;;;;;;;12.51;52.75;99240.88;4251093;28;21703;-68
2023/04/24 04:08:00;;;;;;;16.17;7.87;;;;;;;12.53;52.65;99240.69;4247721;28;21200;-69
2023/04/24 04:10:27;;;;;;;20.50;8.97;;;;;;;12.49;52.80;99239.38;4210465;28;20489;-69
2023/04/24 04:12:53;;;;;;;20.77;7.90;;;;;;;12.40;53.26;99241.34;4224718;28;21159;-69
2023/04/24 04:15:20;;;;;;;15.43;7.33;;;;;;;12.45;52.95;99243.50;4231879;28;21275;-69
2023/04/24 04:17:47;;;;;;;16.07;7.40;;;;;;;12.43;53.24;99234.69;4224963;28;20239;-69
2023/04/24 04:20:13;;;;;;;15.00;7.87;;;;;;;12.29;53.68;99239.94;4233854;28;20235;-67
2023/04/24 04:22:40;;;;;;;24.10;8.77;;;;;;;12.37;53.64;99241.75;4224762;28;21098;-69
2023/04/24 04:25:11;;;;;;;18.83;8.07;;;;;;;12.39;53.68;99245.09;4238854;28;20241;-70
2023/04/24 04:27:38;;;;;;;16.70;7.80;;;;;;;12.50;53.32;99246.50;4220284;28;20275;-69
2023/04/24 04:30:05;;;;;;;19.73;8.17;;;;;;;12.39;53.49;99242.38;4242494;28;22854;-69
2023/04/24 04:32:35;;;;;;;17.37;7.53;;;;;;;12.42;53.75;99238.47;4236203;28;24234;-70
2023/04/24 04:35:04;;;;;;;18.90;7.87;;;;;;;12.35;53.50;99235.66;4228610;28;20233;-69
2023/04/24 04:37:34;;;;;;;16.37;8.13;;;;;;;12.38;53.75;99235.28;4230261;28;20235;-67
2023/04/24 04:40:01;;;;;;;24.77;8.63;;;;;;;12.35;53.70;99241.06;4234364;28;20235;-66
2023/04/24 04:42:28;;;;;;;18.67;8.30;;;;;;;12.48;53.38;99232.28;4229132;28;20235;-68
2023/04/24 04:44:57;;;;;;;22.37;8.40;;;;;;;12.50;53.57;99233.75;4222715;28;20226;-70
2023/04/24 04:47:23;;;;;;;17.63;8.13;;;;;;;12.59;53.07;99239.91;4225631;28;20267;-67
2023/04/24 04:49:53;;;;;;;18.40;8.83;;;;;;;12.61;53.30;99237.84;4222457;28;20233;-72
2023/04/24 04:52:19;;;;;;;17.47;8.73;;;;;;;12.71;53.29;99228.56;4237981;28;22106;-72
2023/04/24 04:54:46;;;;;;;15.43;8.20;;;;;;;12.78;53.05;99227.59;4213718;28;23288;-68
2023/04/24 04:57:13;;;;;;;19.17;8.23;;;;;;;12.90;53.25;99219.78;4234121;28;20247;-68
2023/04/24 04:59:40;;;;;;;17.13;8.80;;;;;;;13.03;53.80;99229.13;4230463;28;20239;-73
2023/04/24 05:02:08;;;;;;;23.13;8.80;;;;;;;13.08;53.89;99213.91;4211014;28;20239;-73
2023/04/24 05:04:36;;;;;;;19.23;8.03;;;;;;;13.41;52.21;99235.16;4233773;28;20297;-72
2023/04/24 05:07:03;;;;;;;19.37;9.03;;;;;;;13.61;51.75;99232.63;4221654;28;20418;-71
2023/04/24 05:09:30;;;;;;;16.33;8.23;;;;;;;13.77;51.04;99239.63;4228562;28;20250;-71
2023/04/24 05:11:56;;;;;;;22.37;8.17;;;;;;;13.91;50.46;99235.13;4228900;28;21281;-68
2023/04/24 05:14:23;;;;;;;17.50;8.87;;;;;;;14.12;49.88;99221.66;4224190;28;22620;-70
2023/04/24 05:16:50;;;;;;;23.53;8.43;;;;;;;14.29;49.69;99216.72;4224162;28;20412;-69
2023/04/24 05:19:16;;;;;;;16.83;8.37;;;;;;;14.39;49.42;99230.78;4239281;28;20324;-69
2023/04/24 05:21:43;;;;;;;26.60;9.13;;;;;;;14.45;49.45;99218.25;4228167;28;20315;-70
2023/04/24 05:24:10;;;;;;;23.13;8.10;;;;;;;14.65;48.95;99226.50;4226196;28;20238;-76
2023/04/24 05:26:37;;;;;;;21.57;8.43;;;;;;;14.57;48.98;99212.03;4209424;28;21149;-69
2023/04/24 05:29:04;;;;;;;17.90;8.37;;;;;;;14.82;48.32;99211.50;4229257;28;21212;-67
2023/04/24 05:31:30;;;;;;;19.20;8.27;;;;;;;15.00;48.36;99218.25;4232879;28;22319;-71
2023/04/24 05:33:57;;;;;;;18.47;8.20;;;;;;;15.02;48.40;99219.75;4222309;28;20437;-69
2023/04/24 05:36:24;;;;;;;24.80;8.60;;;;;;;15.27;47.66;99215.56;4233951;28;20855;-67
2023/04/24 05:38:50;;;;;;;17.97;8.67;;;;;;;15.35;47.49;99213.47;4226593;28;20332;-70
2023/04/24 05:41:17;;;;;;;30.30;9.40;;;;;;;15.62;47.34;99212.63;4223468;28;20247;-69
2023/04/24 05:43:43;;;;;;;17.97;8.00;;;;;;;15.62;47.11;99210.75;4217986;28;20238;-68
2023/04/24 05:46:11;;;;;;;18.73;8.13;;;;;;;15.79;46.60;99207.56;4229156;28;22241;-71
2023/04/24 05:48:38;;;;;;;15.17;8.07;;;;;;;15.93;46.24;99202.97;4218146;28;20228;-70
2023/04/24 05:51:04;;;;;;;24.93;8.37;;;;;;;15.74;47.00;99202.78;4227920;28;20426;-72
2023/04/24 05:53:31;;;;;;;20.23;8.43;;;;;;;15.88;47.41;99203.59;4233614;28;20680;-70
2023/04/24 05:55:58;;;;;;;23.27;8.90;;;;;;;15.78;47.56;99216.84;4229814;28;21739;-70
2023/04/24 05:58:24;;;;;;;20.13;8.20;;;;;;;15.88;47.76;99205.50;4227608;28;20428;-70
2023/04/24 06:00:51;;;;;;;16.37;8.83;;;;;;;15.82;47.89;99207.16;4226204;28;20939;-71
2023/04/24 06:03:18;;;;;;;22.80;8.47;;;;;;;15.97;47.30;99210.53;4218281;28;21505;-71
2023/04/24 06:05:45;;;;;;;25.53;9.30;;;;;;;15.99;47.46;99210.31;4229334;28;20236;-72
2023/04/24 06:08:12;;;;;;;27.93;8.53;;;;;;;16.17;46.99;99206.91;4237502;28;20305;-72
2023/04/24 06:10:38;;;;;;;18.60;7.70;;;;;;;16.51;45.34;99206.78;4225267;28;20231;-73
2023/04/24 06:13:05;;;;;;;16.57;7.70;;;;;;;16.99;44.01;99208.28;4206426;28;20301;-70
2023/04/24 06:15:32;;;;;;;22.43;8.80;;;;;;;17.68;42.51;99209.22;4222550;28;20294;-73
2023/04/24 06:17:58;;;;;;;15.93;7.53;;;;;;;19.16;40.31;99202.88;4231864;28;21610;-72
2023/04/24 06:20:25;;;;;;;21.03;8.33;;;;;;;19.61;38.59;99200.66;4227619;28;20289;-70
2023/04/24 06:22:52;;;;;;;20.37;8.07;;;;;;;20.02;37.60;99193.41;4235666;28;20270;-71
2023/04/24 06:25:19;;;;;;;14.57;7.70;;;;;;;19.74;37.84;99192.19;4229326;28;20239;-71
2023/04/24 06:27:45;;;;;;;20.83;7.97;;;;;;;19.21;38.78;99193.94;4225429;28;20235;-69
2023/04/24 06:30:12;;;;;;;18.70;7.60;;;;;;;19.61;38.10;99190.50;4223878;28;20326;-70
2023/04/24 06:32:39;;;;;;;20.20;7.57;;;;;;;21.00;35.22;99187.16;4230720;28;21249;-71
2023/04/24 06:35:07;;;;;;;16.10;7.13;;;;;;;22.48;32.87;99181.47;4216412;28;20439;-72
2023/04/24 06:37:37;;;;;;;17.17;6.93;;;;;;;23.65;30.87;99184.88;4195465;28;25417;-71
2023/04/24 06:40:04;;;;;;;20.27;7.23;;;;;;;23.65;30.80;99176.59;4227843;28;20295;-69
2023/04/24 06:42:34;;;;;;;18.02;6.90;;;;;;;24.85;29.55;99173.34;4233954;28;20392;-70
2023/04/24 06:45:01;;;;;;;17.33;6.45;;;;;;;26.00;27.72;99178.63;4212748;28;22268;-71
2023/04/24 06:47:28;;;;;;;17.15;6.72;;;;;;;26.00;27.46;99180.59;4229772;28;20357;-71
2023/04/24 06:49:55;;;;;;;21.40;6.55;;;;;;;26.21;27.48;99182.22;4231666;28;21775;-71
2023/04/24 06:52:21;;;;;;;18.77;6.80;;;;;;;27.65;25.33;99185.28;4227181;28;20316;-71
2023/04/24 06:54:48;;;;;;;16.98;7.00;;;;;;;28.21;24.76;99177.53;4218650;28;20247;-71
2023/04/24 06:57:16;;;;;;;17.80;7.38;;;;;;;28.53;25.40;99178.78;4232914;28;20581;-70
2023/04/24 06:59:42;;;;;;;14.80;6.05;;;;;;;28.89;25.01;99178.34;4235650;28;20264;-69
2023/04/24 07:02:10;;;;;;;23.02;7.38;;;;;;;29.37;23.70;99169.81;4222676;28;20235;-68
2023/04/24 07:04:37;;;;;;;21.27;6.97;;;;;;;29.83;23.20;99178.53;4233874;28;20259;-71
2023/04/24 07:07:04;;;;;;;17.48;6.93;;;;;;;30.12;22.78;99180.25;4235636;28;20509;-68
2023/04/24 07:09:31;;;;;;;23.75;7.28;;;;;;;28.74;24.29;99179.38;4227647;28;20235;-70
2023/04/24 07:11:58;;;;;;;17.60;6.53;;;;;;;27.64;25.51;99176.13;4231897;28;20395;-69
2023/04/24 07:14:25;;;;;;;23.15;7.22;;;;;;;28.32;25.00;99170.72;4230287;28;22396;-69
2023/04/24 07:16:51;;;;;;;24.42;6.53;;;;;;;28.23;25.03;99176.09;4210107;28;20247;-71
2023/04/24 07:19:18;;;;;;;15.13;6.30;;;;;;;28.70;24.22;99173.59;4224090;28;20449;-74
2023/04/24 07:21:45;;;;;;;24.58;6.72;;;;;;;28.05;25.34;99169.31;4229885;28;20235;-70
2023/04/24 07:24:12;;;;;;;14.90;6.47;;;;;;;26.22;27.96;99172.78;4228378;28;20326;-72
2023/04/24 07:26:40;;;;;;;22.55;6.78;;;;;;;27.25;26.38;99168.66;4217496;28;20235;-71
2023/04/24 07:29:07;;;;;;;23.77;7.00;;;;;;;27.67;25.40;99163.59;4232882;28;20299;-72
2023/04/24 07:31:33;;;;;;;26.33;7.00;;;;;;;27.20;26.74;99171.44;4238559;28;20241;-71
2023/04/24 07:34:00;;;;;;;18.98;6.30;;;;;;;25.86;28.28;99175.63;4216283;28;20231;-70
2023/04/24 07:36:27;;;;;;;27.45;7.20;;;;;;;25.71;29.21;99176.47;4221657;28;20238;-69
2023/04/24 07:38:56;;;;;;;26.58;6.90;;;;;;;25.23;29.71;99167.56;4228117;28;21078;-70
2023/04/24 07:41:23;;;;;;;22.10;7.72;;;;;;;24.20;30.80;99173.63;4222452;28;21730;-69
2023/04/24 07:43:51;;;;;;;16.17;6.65;;;;;;;23.94;30.93;99167.97;4213512;28;20238;-71
2023/04/24 07:46:17;;;;;;;19.83;7.00;;;;;;;23.83;31.25;99175.31;4219990;28;23732;-70
2023/04/24 07:48:44;;;;;;;22.57;6.63;;;;;;;24.58;30.18;99182.66;4224366;28;20231;-70
2023/04/24 07:51:13;;;;;;;25.17;7.23;;;;;;;25.88;28.68;99167.03;4217778;28;20608;-69
2023/04/24 07:53:40;;;;;;;16.15;6.50;;;;;;;27.59;26.01;99183.69;4254558;28;20235;-70
2023/04/24 07:56:06;;;;;;;16.30;6.23;;;;;;;26.13;27.25;99176.44;4253283;28;20224;-69
2023/04/24 07:58:34;;;;;;;19.48;6.72;;;;;;;26.55;27.47;99178.75;4229482;28;20398;-72
2023/04/24 08:01:00;;;;;;;15.43;6.43;;;;;;;26.46;27.67;99182.41;4208434;28;21106;-71
2023/04/24 08:03:27;;;;;;;18.05;6.72;;;;;;;25.76;28.54;99182.00;4242584;28;21063;-70
2023/04/24 08:05:54;;;;;;;26.30;7.30;;;;;;;25.66;29.89;99181.19;4231972;28;21799;-68
2023/04/24 08:08:22;;;;;;;18.45;7.10;;;;;;;25.87;29.93;99185.56;4237360;28;20235;-78
2023/04/24 08:10:49;;;;;;;20.67;7.10;;;;;;;25.04;31.30;99165.34;4226595;28;21392;-68
2023/04/24 08:13:16;;;;;;;19.55;6.88;;;;;;;24.86;31.55;99172.25;4231384;28;23501;-69
2023/04/24 08:15:43;;;;;;;20.80;6.88;;;;;;;24.80;31.75;99176.09;4204990;28;22856;-71
2023/04/24 08:18:12;;;;;;;14.75;6.30;;;;;;;23.96;31.76;99176.81;4230228;28;20286;-71
2023/04/24 08:20:39;;;;;;;19.60;7.63;;;;;;;23.35;32.17;99174.41;4214136;28;22304;-66
2023/04/24 08:23:06;;;;;;;24.80;6.40;;;;;;;22.90;32.45;99179.19;4228731;28;20621;-69
2023/04/24 08:25:32;;;;;;;13.25;6.72;;;;;;;22.94;32.21;99175.66;4231396;28;20290;-70
2023/04/24 08:27:59;;;;;;;16.20;6.47;;;;;;;23.07;32.25;99174.41;4236798;28;20637;-68
2023/04/24 08:30:26;;;;;;;15.77;6.47;;;;;;;23.33;32.32;99174.66;4246059;28;20246;-69
2023/04/24 08:32:53;;;;;;;17.48;7.05;;;;;;;23.20;32.63;99173.16;4229889;28;21205;-70
2023/04/24 08:35:20;;;;;;;14.07;5.90;;;;;;;23.23;32.78;99172.66;4242083;28;20242;-72
2023/04/24 08:37:46;;;;;;;19.47;6.67;;;;;;;23.19;33.03;99179.78;4276984;28;20244;-72
2023/04/24 08:40:15;;;;;;;15.57;7.17;;;;;;;22.44;34.22;99183.09;4282022;28;20237;-71
2023/04/24 08:42:43;;;;;;;12.80;6.37;;;;;;;22.18;34.87;99181.91;4242268;28;20227;-68
2023/04/24 08:45:11;;;;;;;19.80;7.27;;;;;;;21.86;36.11;99179.81;4224123;28;20244;-69
2023/04/24 08:47:40;;;;;;;31.97;7.93;;;;;;;21.45;37.76;99181.91;4222856;28;20241;-67
2023/04/24 08:50:07;;;;;;;23.17;8.23;;;;;;;21.73;38.06;99182.91;4231305;28;20269;-70
2023/04/24 08:52:36;;;;;;;26.57;7.53;;;;;;;22.41;36.65;99182.78;4232177;28;20614;-73
2023/04/24 08:55:03;;;;;;;30.17;8.30;;;;;;;22.27;37.63;99185.91;4194874;28;20881;-70
2023/04/24 08:57:31;;;;;;;24.50;7.97;;;;;;;22.31;36.47;99181.53;4224775;28;20248;-72
2023/04/24 08:59:58;;;;;;;20.60;7.43;;;;;;;22.48;36.43;99167.69;4229378;28;23474;-68
2023/04/24 09:02:25;;;;;;;20.97;7.27;;;;;;;22.25;36.94;99185.31;4222098;28;20234;-71
2023/04/24 09:04:53;;;;;;;18.37;7.57;;;;;;;22.14;37.45;99177.97;4197095;28;21109;-67
2023/04/24 09:07:19;;;;;;;31.07;7.27;;;;;;;21.78;37.88;99178.31;4214658;28;20234;-68
2023/04/24 09:09:46;;;;;;;17.03;6.97;;;;;;;22.02;36.89;99183.59;4231710;28;21347;-68
2023/04/24 09:12:13;;;;;;;18.90;6.90;;;;;;;22.07;37.38;99182.84;4224581;28;25263;-66
2023/04/24 09:14:44;;;;;;;35.03;9.30;;;;;;;22.03;36.56;99187.22;4217187;28;20626;-67
2023/04/24 09:17:12;;;;;;;15.27;6.60;;;;;;;22.02;35.66;99178.09;4221385;28;20240;-66
2023/04/24 09:19:39;;;;;;;18.23;5.97;;;;;;;22.07;35.40;99172.66;4214113;28;20231;-66
2023/04/24 09:22:07;;;;;;;15.07;5.80;;;;;;;21.99;35.39;99176.69;4233394;28;21903;-67
2023/04/24 09:24:34;;;;;;;11.60;6.80;;;;;;;22.48;35.02;99164.13;4244714;28;21140;-67
2023/04/24 09:27:02;;;;;;;17.27;6.00;;;;;;;22.41;35.36;99157.97;4230639;28;23402;-68
2023/04/24 09:29:28;;;;;;;13.27;6.07;;;;;;;22.56;35.28;99157.31;4222380;28;22875;-68
2023/04/24 09:31:55;;;;;;;23.77;7.63;;;;;;;22.44;35.83;99157.44;4230924;28;20307;-66
2023/04/24 09:34:23;;;;;;;101.10;13.57;;;;;;;22.61;35.97;99154.63;4237648;28;20242;-66
2023/04/24 09:36:51;;;;;;;20.50;5.70;;;;;;;22.81;34.42;99145.72;4231004;28;21228;-67
2023/04/24 09:39:21;;;;;;;16.27;5.73;;;;;;;23.21;33.10;99143.66;4232697;28;20239;-67
2023/04/24 09:41:50;;;;;;;10.63;5.53;;;;;;;23.14;33.29;99138.31;4224579;28;20238;-67
2023/04/24 09:44:21;;;;;;;11.00;5.60;;;;;;;23.37;33.44;99141.84;4239279;28;20247;-69
2023/04/24 09:46:56;;;;;;;12.63;5.75;;;;;;;23.73;33.00;99137.41;4229397;28;27206;-68
2023/04/24 09:49:27;;;;;;;15.07;5.87;;;;;;;23.58;34.18;99140.88;4238390;28;21826;-67
2023/04/24 09:52:04;;;;;;;17.80;6.50;;;;;;;23.73;32.38;99137.41;4224498;28;21052;-68
2023/04/24 09:54:31;;;;;;;15.87;6.00;;;;;;;23.47;32.41;99132.78;4234609;28;20609;-68
2023/04/24 09:56:59;;;;;;;18.42;5.97;;;;;;;23.11;33.19;99125.88;4225467;28;20405;-66
2023/04/24 09:59:26;;;;;;;13.87;5.60;;;;;;;23.46;33.92;99131.13;4216445;28;20239;-68
2023/04/24 10:01:53;;;;;;;22.33;5.72;;;;;;;23.74;32.47;99127.19;4230285;28;20231;-68
2023/04/24 10:04:21;;;;;;;19.52;5.80;;;;;;;23.86;32.90;99126.97;4229148;28;22041;-67
2023/04/24 10:06:49;;;;;;;15.05;5.60;;;;;;;23.76;32.93;99126.91;4213093;28;20325;-65
2023/04/24 10:09:23;;;;;;;14.93;5.67;;;;;;;23.82;32.67;99118.38;4210751;28;20283;-64
2023/04/24 10:11:51;;;;;;;12.93;4.63;;;;;;;24.34;30.81;99115.88;4228975;28;20499;-65
2023/04/24 10:14:20;;;;;;;11.45;4.97;;;;;;;23.99;31.51;99115.47;4213167;28;20272;-68
2023/04/24 10:16:48;;;;;;;15.35;5.40;;;;;;;23.56;31.10;99106.34;4223613;28;20236;-66
2023/04/24 10:19:15;;;;;;;12.53;5.07;;;;;;;23.21;31.42;99116.03;4218584;28;21759;-66
2023/04/24 10:21:46;;;;;;;15.13;5.20;;;;;;;22.56;32.91;99104.91;4224111;28;20243;-68
2023/04/24 10:24:14;;;;;;;11.93;4.80;;;;;;;23.08;32.55;99109.00;4216752;28;20408;-68
2023/04/24 10:26:42;;;;;;;17.07;5.07;;;;;;;23.27;31.51;99106.69;4230419;28;20232;-57
2023/04/24 10:29:15;;;;;;;11.07;4.65;;;;;;;22.78;32.34;99099.34;4240608;28;20224;-70
2023/04/24 10:31:45;;;;;;;13.43;4.87;;;;;;;23.26;33.08;99094.00;4239013;28;21722;-53
2023/04/24 10:34:13;;;;;;;14.45;5.18;;;;;;;23.06;32.82;99091.84;4225336;28;20236;-50
2023/04/24 10:36:42;;;;;;;12.03;5.10;;;;;;;22.99;34.99;99085.72;4227386;28;24990;-61
2023/04/24 10:39:11;;;;;;;11.27;4.93;;;;;;;23.22;33.24;99085.41;4244434;28;20230;-56
2023/04/24 10:41:38;;;;;;;17.60;5.13;;;;;;;23.24;34.23;99088.75;4218794;28;20275;-49
2023/04/24 10:44:06;;;;;;;10.93;6.23;;;;;;;23.22;34.61;99085.41;4219531;28;20348;-70
2023/04/24 10:46:33;;;;;;;18.87;6.70;;;;;;;23.32;33.96;99072.78;4217931;28;20816;-68
2023/04/24 10:49:03;;;;;;;63.57;9.17;;;;;;;23.66;33.22;99073.28;4207330;28;20294;-69
2023/04/24 10:51:59;;;;;;;15.20;5.17;;;;;;;23.32;32.91;99075.53;4236726;28;20400;-70
2023/04/24 10:54:29;;;;;;;20.77;6.00;;;;;;;23.42;32.07;99068.16;4237152;28;20596;-68
2023/04/24 10:57:17;;;;;;;28.57;6.97;;;;;;;23.60;31.23;99068.81;4216745;28;22645;-68
2023/04/24 10:59:44;;;;;;;12.37;5.03;;;;;;;23.70;31.26;99068.84;4233632;28;20232;-70
2023/04/24 11:02:15;;;;;;;10.57;5.03;;;;;;;23.55;31.32;99063.25;4226483;28;20505;-71
2023/04/24 11:04:45;;;;;;;12.70;5.33;;;;;;;23.78;30.88;99055.63;4220757;28;21098;-71
2023/04/24 11:07:13;;;;;;;9.52;4.82;;;;;;;23.84;29.72;99073.91;4224019;28;22515;-69
2023/04/24 11:09:42;;;;;;;16.27;5.40;;;;;;;23.21;30.96;99061.66;4231619;28;22576;-68
2023/04/24 11:12:11;;;;;;;14.33;5.30;;;;;;;22.83;30.93;99058.00;4228761;28;20240;-69
2023/04/24 11:14:59;;;;;;;11.50;5.17;;;;;;;23.03;31.17;99068.38;4223475;28;20587;-67
2023/04/24 11:17:37;;;;;;;9.63;5.37;;;;;;;23.45;31.54;99063.19;4254403;28;20232;-68
2023/04/24 11:20:11;;;;;;;15.37;6.23;;;;;;;22.74;33.48;99063.16;4221653;28;20305;-69
2023/04/24 11:22:54;;;;;;;15.53;6.10;;;;;;;22.72;34.24;99057.06;4224434;28;22221;-68
2023/04/24 11:25:22;;;;;;;12.73;5.77;;;;;;;22.99;33.72;99058.13;4218571;28;20238;-68